createdAt,value
2023-01-08T00:00:46.935Z,40.44
2023-01-08T00:01:46.744Z,43.79
2023-01-08T00:02:46.659Z,40.08
2023-01-08T00:03:46.804Z,45.57
2023-01-08T00:04:46.606Z,47.70
2023-01-08T00:05:46.588Z,39.76
2023-01-08T00:06:46.575Z,39.01
2023-01-08T00:07:46.566Z,46.68
2023-01-08T00:08:46.555Z,45.10
2023-01-08T00:09:46.587Z,40.60
2023-01-08T00:10:46.533Z,39.81
2023-01-08T00:11:46.539Z,42.25
2023-01-08T00:12:46.511Z,40.91
2023-01-08T00:13:46.505Z,40.72
2023-01-08T00:14:46.514Z,39.34
2023-01-08T00:15:46.486Z,43.45
2023-01-08T00:16:46.652Z,39.41
2023-01-08T00:17:46.464Z,39.98
2023-01-08T00:18:46.447Z,45.27
2023-01-08T00:19:46.452Z,43.62
2023-01-08T00:20:46.421Z,39.07
2023-01-08T00:21:46.414Z,46.72
2023-01-08T00:22:46.401Z,48.93
2023-01-08T00:23:46.398Z,45.22
2023-01-08T00:24:46.397Z,39.67
2023-01-08T00:25:46.449Z,39.03
2023-01-08T00:26:46.512Z,38.61
2023-01-08T00:27:46.357Z,39.03
2023-01-08T00:28:46.358Z,38.55
2023-01-08T00:29:46.353Z,38.24
2023-01-08T00:30:46.356Z,44.96
2023-01-08T00:31:46.319Z,38.38
2023-01-08T00:32:46.404Z,38.73
2023-01-08T00:33:46.291Z,37.98
2023-01-08T00:34:46.304Z,38.51
2023-01-08T00:35:46.274Z,38.33
2023-01-08T00:36:46.265Z,42.71
2023-01-08T00:37:46.249Z,47.18
2023-01-08T00:38:46.246Z,39.88
2023-01-08T00:39:46.235Z,38.39
2023-01-08T00:40:46.282Z,38.34
2023-01-08T00:41:46.209Z,38.21
2023-01-08T00:42:46.203Z,39.19
2023-01-08T00:43:46.185Z,37.98
2023-01-08T00:44:46.178Z,37.53
2023-01-08T00:45:46.259Z,38.06
2023-01-08T00:46:46.151Z,38.88
2023-01-08T00:47:46.161Z,39.32
2023-01-08T00:48:46.283Z,40.27
2023-01-08T00:49:46.357Z,39.87
2023-01-08T00:50:46.162Z,40.94
2023-01-08T00:51:46.097Z,43.09
2023-01-08T00:52:46.093Z,38.75
2023-01-08T00:53:46.114Z,38.02
2023-01-08T00:54:46.102Z,38.29
2023-01-08T00:55:46.115Z,39.07
2023-01-08T00:56:46.070Z,42.67
2023-01-08T00:57:46.217Z,38.25
2023-01-08T00:58:46.026Z,37.52
2023-01-08T00:59:46.021Z,38.75
2023-01-08T01:00:46.133Z,39.89
2023-01-08T01:01:46.071Z,40.10
2023-01-08T01:02:46.038Z,46.07
2023-01-08T01:03:46.014Z,41.23
2023-01-08T01:04:46.079Z,39.93
2023-01-08T01:05:45.971Z,39.03
2023-01-08T01:06:45.997Z,39.87
2023-01-08T01:07:45.938Z,44.54
2023-01-08T01:08:45.922Z,40.72
2023-01-08T01:09:45.910Z,41.33
2023-01-08T01:10:45.921Z,37.69
2023-01-08T01:11:45.929Z,38.26
2023-01-08T01:12:45.885Z,38.57
2023-01-08T01:13:45.874Z,38.34
2023-01-08T01:14:45.855Z,42.71
2023-01-08T01:15:45.871Z,38.12
2023-01-08T01:16:45.861Z,39.20
2023-01-08T01:17:45.832Z,39.32
2023-01-08T01:18:45.816Z,41.27
2023-01-08T01:19:45.811Z,41.77
2023-01-08T01:20:45.906Z,37.96
2023-01-08T01:21:45.786Z,38.05
2023-01-08T01:22:45.772Z,37.86
2023-01-08T01:23:45.776Z,39.52
2023-01-08T01:24:45.762Z,40.23
2023-01-08T01:25:45.974Z,44.44
2023-01-08T01:26:45.758Z,38.26
2023-01-08T01:27:45.714Z,37.61
2023-01-08T01:28:45.709Z,37.21
2023-01-08T01:29:45.696Z,37.29
2023-01-08T01:30:45.741Z,38.19
2023-01-08T01:31:45.739Z,39.58
2023-01-08T01:32:45.694Z,39.09
2023-01-08T01:33:45.661Z,37.91
2023-01-08T01:34:45.751Z,38.66
2023-01-08T01:35:45.632Z,39.44
2023-01-08T01:36:45.768Z,43.74
2023-01-08T01:37:45.620Z,38.86
2023-01-08T01:38:45.618Z,37.85
2023-01-08T01:39:45.702Z,37.72
2023-01-08T01:40:45.587Z,37.16
2023-01-08T01:41:45.579Z,37.17
2023-01-08T01:42:45.562Z,38.45
2023-01-08T01:43:45.554Z,40.57
2023-01-08T01:44:45.553Z,45.28
2023-01-08T01:45:45.592Z,43.52
2023-01-08T01:46:45.532Z,41.46
2023-01-08T01:47:45.532Z,39.76
2023-01-08T01:48:45.505Z,38.16
2023-01-08T01:49:45.492Z,37.41
2023-01-08T01:50:45.478Z,38.46
2023-01-08T01:51:45.538Z,39.28
2023-01-08T01:52:45.607Z,38.62
2023-01-08T01:53:45.452Z,38.44
2023-01-08T01:54:45.443Z,37.57
2023-01-08T01:55:45.443Z,38.02
2023-01-08T01:56:45.430Z,37.97
2023-01-08T01:57:45.427Z,37.16
2023-01-08T01:58:45.403Z,37.72
2023-01-08T01:59:45.385Z,37.60
2023-01-08T02:00:45.377Z,38.72
2023-01-08T02:01:45.503Z,39.28
2023-01-08T02:02:45.357Z,39.40
2023-01-08T02:03:45.369Z,38.20
2023-01-08T02:04:45.346Z,37.10
2023-01-08T02:05:45.323Z,38.99
2023-01-08T02:06:45.327Z,38.07
2023-01-08T02:07:45.311Z,38.60
2023-01-08T02:08:45.388Z,37.54
2023-01-08T02:09:45.276Z,38.43
2023-01-08T02:10:45.271Z,39.42
2023-01-08T02:11:45.254Z,39.23
2023-01-08T02:12:45.259Z,37.49
2023-01-08T02:13:45.246Z,41.56
2023-01-08T02:14:45.225Z,37.73
2023-01-08T02:15:45.220Z,38.14
2023-01-08T02:16:45.283Z,40.01
2023-01-08T02:17:45.212Z,38.97
2023-01-08T02:18:45.190Z,38.39
2023-01-08T02:19:45.175Z,40.28
2023-01-08T02:20:54.189Z,46.05
2023-01-08T02:21:45.161Z,39.75
2023-01-08T02:22:45.128Z,37.99
2023-01-08T02:23:45.126Z,38.04
2023-01-08T02:24:45.220Z,38.35
2023-01-08T02:25:45.096Z,40.18
2023-01-08T02:26:45.086Z,41.32
2023-01-08T02:27:45.089Z,40.02
2023-01-08T02:28:45.065Z,38.46
2023-01-08T02:29:45.050Z,39.35
2023-01-08T02:30:45.103Z,41.92
2023-01-08T02:31:45.039Z,39.57
2023-01-08T02:32:45.040Z,37.82
2023-01-08T02:33:45.033Z,38.55
2023-01-08T02:34:44.999Z,39.48
2023-01-08T02:35:45.018Z,38.86
2023-01-08T02:36:45.004Z,38.38
2023-01-08T02:37:44.974Z,44.68
2023-01-08T02:38:44.955Z,38.38
2023-01-08T02:39:44.951Z,38.48
2023-01-08T02:40:45.065Z,38.47
2023-01-08T02:41:44.940Z,37.56
2023-01-08T02:42:44.919Z,37.61
2023-01-08T02:43:44.909Z,37.58
2023-01-08T02:44:44.898Z,37.36
2023-01-08T02:45:44.935Z,38.17
2023-01-08T02:46:44.884Z,41.94
2023-01-08T02:47:44.883Z,39.72
2023-01-08T02:48:44.860Z,38.61
2023-01-08T02:49:44.843Z,37.82
2023-01-08T02:50:44.853Z,37.48
2023-01-08T02:51:44.832Z,38.37
2023-01-08T02:52:44.823Z,40.05
2023-01-08T02:53:44.815Z,39.07
2023-01-08T02:54:44.793Z,38.33
2023-01-08T02:55:44.787Z,39.75
2023-01-08T02:56:44.881Z,38.49
2023-01-08T02:57:44.773Z,38.04
2023-01-08T02:58:44.799Z,37.66
2023-01-08T02:59:45.940Z,37.54
2023-01-08T03:00:45.897Z,38.24
2023-01-08T03:01:46.068Z,38.20
2023-01-08T03:02:45.890Z,38.23
2023-01-08T03:03:45.908Z,40.02
2023-01-08T03:04:45.853Z,40.36
2023-01-08T03:05:45.859Z,42.09
2023-01-08T03:06:45.816Z,42.52
2023-01-08T03:07:45.885Z,37.51
2023-01-08T03:08:45.807Z,38.38
2023-01-08T03:09:45.798Z,37.56
2023-01-08T03:10:45.805Z,37.96
2023-01-08T03:11:45.769Z,37.60
2023-01-08T03:12:45.861Z,37.98
2023-01-08T03:13:45.773Z,38.46
2023-01-08T03:14:45.752Z,39.08
2023-01-08T03:15:45.744Z,44.88
2023-01-08T03:16:45.761Z,40.23
2023-01-08T03:17:45.752Z,37.49
2023-01-08T03:18:45.741Z,37.05
2023-01-08T03:19:45.690Z,38.27
2023-01-08T03:20:45.697Z,39.76
2023-01-08T03:21:45.728Z,39.26
2023-01-08T03:22:45.751Z,38.63
2023-01-08T03:23:45.699Z,39.32
2023-01-08T03:24:45.744Z,38.85
2023-01-08T03:25:45.680Z,39.50
2023-01-08T03:26:45.665Z,39.67
2023-01-08T03:27:45.692Z,37.79
2023-01-08T03:28:45.741Z,37.27
2023-01-08T03:29:45.652Z,38.30
2023-01-08T03:30:45.661Z,38.44
2023-01-08T03:31:45.614Z,39.03
2023-01-08T03:32:45.575Z,39.74
2023-01-08T03:33:45.592Z,39.81
2023-01-08T03:34:45.592Z,39.10
2023-01-08T03:35:45.594Z,38.50
2023-01-08T03:36:45.600Z,39.36
2023-01-08T03:37:45.572Z,39.41
2023-01-08T03:38:45.587Z,39.48
2023-01-08T03:39:45.544Z,39.16
2023-01-08T03:40:45.540Z,38.96
2023-01-08T03:41:45.532Z,39.94
2023-01-08T03:42:45.514Z,40.77
2023-01-08T03:43:45.499Z,41.47
2023-01-08T03:44:45.642Z,41.28
2023-01-08T03:45:45.610Z,39.67
2023-01-08T03:46:45.474Z,41.68
2023-01-08T03:47:45.455Z,42.50
2023-01-08T03:48:45.491Z,40.69
2023-01-08T03:49:45.426Z,41.17
2023-01-08T03:50:45.473Z,45.15
2023-01-08T03:51:45.410Z,45.93
2023-01-08T03:52:45.404Z,45.08
2023-01-08T03:53:45.421Z,43.40
2023-01-08T03:54:45.362Z,41.67
2023-01-08T03:55:45.392Z,40.00
2023-01-08T03:56:45.386Z,40.08
2023-01-08T03:57:45.386Z,38.25
2023-01-08T03:58:45.360Z,39.37
2023-01-08T03:59:45.322Z,40.57
2023-01-08T04:00:45.408Z,39.79
2023-01-08T04:01:45.499Z,39.71
2023-01-08T04:02:45.329Z,40.27
2023-01-08T04:03:45.310Z,40.72
2023-01-08T04:04:45.383Z,39.99
2023-01-08T04:05:45.254Z,39.87
2023-01-08T04:06:45.300Z,38.78
2023-01-08T04:07:45.284Z,38.90
2023-01-08T04:08:45.299Z,38.94
2023-01-08T04:09:45.295Z,40.15
2023-01-08T04:10:45.247Z,48.16
2023-01-08T04:11:45.244Z,49.87
2023-01-08T04:12:45.213Z,50.64
2023-01-08T04:13:45.259Z,51.24
2023-01-08T04:14:45.173Z,50.97
2023-01-08T04:15:45.212Z,48.80
2023-01-08T04:16:45.245Z,47.42
2023-01-08T04:17:45.164Z,45.50
2023-01-08T04:18:45.138Z,44.74
2023-01-08T04:19:45.146Z,42.47
2023-01-08T04:20:45.089Z,40.32
2023-01-08T04:21:45.126Z,44.36
2023-01-08T04:22:45.136Z,41.25
2023-01-08T04:23:45.117Z,44.33
2023-01-08T04:24:45.141Z,47.37
2023-01-08T04:25:45.119Z,48.44
2023-01-08T04:26:45.074Z,49.45
2023-01-08T04:27:45.064Z,51.72
2023-01-08T04:28:45.079Z,49.65
2023-01-08T04:29:45.082Z,47.79
2023-01-08T04:30:45.095Z,43.85
2023-01-08T04:31:45.017Z,41.78
2023-01-08T04:32:45.101Z,40.11
2023-01-08T04:33:45.052Z,39.90
2023-01-08T04:34:45.038Z,39.58
2023-01-08T04:35:46.020Z,40.02
2023-01-08T04:36:44.967Z,40.16
2023-01-08T04:37:44.990Z,44.02
2023-01-08T04:38:44.976Z,39.77
2023-01-08T04:39:44.931Z,40.27
2023-01-08T04:40:44.930Z,41.67
2023-01-08T04:41:44.940Z,40.62
2023-01-08T04:42:44.951Z,44.35
2023-01-08T04:43:44.895Z,42.34
2023-01-08T04:44:44.899Z,40.08
2023-01-08T04:45:44.894Z,38.19
2023-01-08T04:46:44.861Z,38.16
2023-01-08T04:47:44.890Z,39.45
2023-01-08T04:48:44.936Z,40.02
2023-01-08T04:49:44.878Z,39.76
2023-01-08T04:50:44.836Z,40.96
2023-01-08T04:51:44.845Z,42.56
2023-01-08T04:52:44.823Z,41.79
2023-01-08T04:53:44.793Z,44.24
2023-01-08T04:54:44.815Z,40.21
2023-01-08T04:55:45.791Z,40.40
2023-01-08T04:56:44.789Z,40.72
2023-01-08T04:57:44.768Z,41.26
2023-01-08T04:58:44.767Z,40.93
2023-01-08T04:59:44.743Z,44.47
2023-01-08T05:00:44.719Z,42.63
2023-01-08T05:01:44.850Z,50.13
2023-01-08T05:02:44.848Z,50.15
2023-01-08T05:03:44.681Z,49.88
2023-01-08T05:04:44.711Z,49.59
2023-01-08T05:05:44.681Z,52.51
2023-01-08T05:06:44.699Z,51.89
2023-01-08T05:07:44.674Z,53.13
2023-01-08T05:08:44.652Z,51.13
2023-01-08T05:09:44.696Z,54.01
2023-01-08T05:10:44.640Z,53.78
2023-01-08T05:11:44.610Z,55.61
2023-01-08T05:12:44.638Z,56.18
2023-01-08T05:13:44.637Z,57.55
2023-01-08T05:14:44.672Z,57.10
2023-01-08T05:15:44.610Z,57.43
2023-01-08T05:16:44.588Z,58.04
2023-01-08T05:17:44.584Z,56.75
2023-01-08T05:18:44.555Z,55.66
2023-01-08T05:19:44.575Z,55.24
2023-01-08T05:20:44.643Z,55.41
2023-01-08T05:21:44.537Z,54.74
2023-01-08T05:22:44.539Z,55.10
2023-01-08T05:23:44.504Z,54.57
2023-01-08T05:24:44.546Z,54.53
2023-01-08T05:25:44.547Z,55.37
2023-01-08T05:26:44.510Z,59.94
2023-01-08T05:27:44.467Z,59.60
2023-01-08T05:28:44.467Z,60.23
2023-01-08T05:29:44.468Z,56.31
2023-01-08T05:30:44.481Z,54.66
2023-01-08T05:31:44.484Z,53.85
2023-01-08T05:32:44.458Z,56.15
2023-01-08T05:33:44.417Z,55.48
2023-01-08T05:34:44.438Z,56.28
2023-01-08T05:35:44.376Z,54.43
2023-01-08T05:36:44.476Z,53.45
2023-01-08T05:37:44.391Z,53.58
2023-01-08T05:38:44.368Z,54.64
2023-01-08T05:39:44.396Z,55.94
2023-01-08T05:40:44.368Z,57.33
2023-01-08T05:41:44.336Z,58.39
2023-01-08T05:42:44.346Z,58.22
2023-01-08T05:43:44.293Z,57.68
2023-01-08T05:44:44.322Z,58.05
2023-01-08T05:45:44.305Z,59.02
2023-01-08T05:46:44.406Z,61.42
2023-01-08T05:47:44.287Z,62.42
2023-01-08T05:48:44.276Z,61.00
2023-01-08T05:49:44.267Z,60.09
2023-01-08T05:50:44.246Z,61.10
2023-01-08T05:51:44.245Z,59.59
2023-01-08T05:52:44.312Z,55.58
2023-01-08T05:53:44.221Z,52.55
2023-01-08T05:54:44.214Z,53.16
2023-01-08T05:55:44.203Z,49.54
2023-01-08T05:56:44.198Z,47.06
2023-01-08T05:57:44.177Z,46.56
2023-01-08T05:58:44.183Z,44.84
2023-01-08T05:59:44.182Z,45.45
2023-01-08T06:00:44.150Z,53.47
2023-01-08T06:01:44.206Z,56.98
2023-01-08T06:02:44.201Z,58.74
2023-01-08T06:03:44.137Z,57.91
2023-01-08T06:04:44.146Z,56.50
2023-01-08T06:05:44.081Z,52.53
2023-01-08T06:06:44.110Z,52.33
2023-01-08T06:07:44.074Z,50.20
2023-01-08T06:08:44.181Z,50.69
2023-01-08T06:09:44.112Z,49.17
2023-01-08T06:10:44.040Z,47.09
2023-01-08T06:11:44.047Z,43.03
2023-01-08T06:12:44.018Z,44.64
2023-01-08T06:13:44.058Z,45.96
2023-01-08T06:14:44.041Z,50.10
2023-01-08T06:15:44.085Z,51.01
2023-01-08T06:16:44.025Z,51.04
2023-01-08T06:17:43.968Z,47.67
2023-01-08T06:18:43.981Z,46.84
2023-01-08T06:19:43.967Z,46.85
2023-01-08T06:20:43.918Z,47.19
2023-01-08T06:21:43.970Z,49.65
2023-01-08T06:22:43.939Z,52.51
2023-01-08T06:23:43.908Z,52.72
2023-01-08T06:24:44.021Z,54.07
2023-01-08T06:25:43.924Z,52.79
2023-01-08T06:26:43.877Z,53.36
2023-01-08T06:27:43.878Z,53.56
2023-01-08T06:28:43.880Z,52.08
2023-01-08T06:29:43.889Z,51.55
2023-01-08T06:30:43.892Z,51.53
2023-01-08T06:31:43.832Z,52.59
2023-01-08T06:32:44.801Z,52.42
2023-01-08T06:33:43.825Z,51.03
2023-01-08T06:34:43.797Z,53.91
2023-01-08T06:35:43.805Z,52.48
2023-01-08T06:36:43.767Z,51.78
2023-01-08T06:37:43.801Z,55.45
2023-01-08T06:38:43.748Z,57.31
2023-01-08T06:39:43.781Z,55.51
2023-01-08T06:40:43.831Z,53.35
2023-01-08T06:41:43.711Z,53.71
2023-01-08T06:42:43.736Z,53.07
2023-01-08T06:43:43.718Z,51.06
2023-01-08T06:44:43.721Z,53.14
2023-01-08T06:45:43.722Z,53.22
2023-01-08T06:46:43.758Z,51.74
2023-01-08T06:47:43.633Z,52.18
2023-01-08T06:48:43.661Z,53.13
2023-01-08T06:49:43.631Z,53.50
2023-01-08T06:50:43.648Z,52.51
2023-01-08T06:51:43.605Z,54.18
2023-01-08T06:52:43.574Z,53.51
2023-01-08T06:53:43.609Z,53.53
2023-01-08T06:54:43.596Z,52.64
2023-01-08T06:55:43.602Z,52.81
2023-01-08T06:56:53.350Z,50.92
2023-01-08T06:57:45.571Z,52.01
2023-01-08T06:58:43.562Z,54.38
2023-01-08T06:59:43.554Z,51.82
2023-01-08T07:00:43.534Z,52.17
2023-01-08T07:01:43.578Z,52.64
2023-01-08T07:02:43.670Z,53.52
2023-01-08T07:03:43.514Z,54.44
2023-01-08T07:04:43.512Z,54.90
2023-01-08T07:05:43.518Z,52.56
2023-01-08T07:06:43.469Z,52.33
2023-01-08T07:07:43.452Z,53.37
2023-01-08T07:08:43.451Z,51.67
2023-01-08T07:09:43.433Z,55.37
2023-01-08T07:10:43.430Z,55.08
2023-01-08T07:11:43.462Z,52.84
2023-01-08T07:12:43.458Z,50.56
2023-01-08T07:13:43.366Z,51.91
2023-01-08T07:14:44.387Z,51.04
2023-01-08T07:15:43.436Z,53.74
2023-01-08T07:16:43.347Z,56.52
2023-01-08T07:17:43.343Z,58.06
2023-01-08T07:18:43.304Z,57.08
2023-01-08T07:19:43.326Z,56.60
2023-01-08T07:20:44.324Z,59.12
2023-01-08T07:21:43.298Z,59.82
2023-01-08T07:22:43.286Z,61.04
2023-01-08T07:23:43.289Z,60.62
2023-01-08T07:24:43.277Z,61.68
2023-01-08T07:25:43.282Z,60.07
2023-01-08T07:26:43.251Z,58.25
2023-01-08T07:27:43.219Z,56.33
2023-01-08T07:28:43.315Z,53.05
2023-01-08T07:29:43.243Z,53.12
2023-01-08T07:30:43.238Z,52.38
2023-01-08T07:31:43.259Z,50.70
2023-01-08T07:32:43.195Z,51.59
2023-01-08T07:33:43.171Z,49.42
2023-01-08T07:34:43.184Z,47.94
2023-01-08T07:35:43.199Z,46.94
2023-01-08T07:36:43.162Z,45.97
2023-01-08T07:37:43.118Z,50.40
2023-01-08T07:38:43.129Z,50.14
2023-01-08T07:39:43.152Z,49.92
2023-01-08T07:40:43.117Z,51.48
2023-01-08T07:41:43.107Z,50.05
2023-01-08T07:42:43.094Z,53.40
2023-01-08T07:43:43.104Z,50.23
2023-01-08T07:44:43.164Z,50.42
2023-01-08T07:45:43.044Z,47.18
2023-01-08T07:46:43.149Z,50.67
2023-01-08T07:47:43.038Z,52.11
2023-01-08T07:48:43.065Z,51.46
2023-01-08T07:49:43.029Z,49.44
2023-01-08T07:50:43.021Z,49.75
2023-01-08T07:51:42.978Z,54.23
2023-01-08T07:52:42.997Z,54.32
2023-01-08T07:53:42.959Z,54.21
2023-01-08T07:54:42.972Z,51.41
2023-01-08T07:55:43.020Z,52.84
2023-01-08T07:56:42.942Z,49.21
2023-01-08T07:57:42.937Z,56.74
2023-01-08T07:58:42.926Z,52.91
2023-01-08T07:59:42.907Z,46.67
2023-01-08T08:00:43.024Z,45.97
2023-01-08T08:01:43.039Z,45.13
2023-01-08T08:02:43.030Z,44.79
2023-01-08T08:03:42.917Z,45.40
2023-01-08T08:04:42.858Z,50.77
2023-01-08T08:05:42.885Z,54.84
2023-01-08T08:06:42.876Z,58.06
2023-01-08T08:07:42.834Z,57.61
2023-01-08T08:08:42.831Z,58.36
2023-01-08T08:09:42.826Z,58.81
2023-01-08T08:10:42.789Z,57.31
2023-01-08T08:11:42.800Z,57.18
2023-01-08T08:12:42.746Z,57.09
2023-01-08T08:13:42.778Z,55.27
2023-01-08T08:14:42.781Z,55.83
2023-01-08T08:15:42.826Z,56.47
2023-01-08T08:16:42.797Z,55.87
2023-01-08T08:17:42.723Z,56.53
2023-01-08T08:18:42.716Z,55.63
2023-01-08T08:19:42.697Z,56.97
2023-01-08T08:20:42.711Z,55.83
2023-01-08T08:21:42.668Z,54.77
2023-01-08T08:22:42.642Z,52.59
2023-01-08T08:23:42.699Z,54.39
2023-01-08T08:24:42.642Z,51.89
2023-01-08T08:25:42.675Z,55.13
2023-01-08T08:26:42.619Z,52.09
2023-01-08T08:27:42.620Z,49.47
2023-01-08T08:28:42.629Z,51.55
2023-01-08T08:29:42.574Z,50.62
2023-01-08T08:30:42.903Z,50.42
2023-01-08T08:31:43.588Z,53.01
2023-01-08T08:32:42.664Z,53.06
2023-01-08T08:33:42.546Z,51.71
2023-01-08T08:34:42.534Z,51.35
2023-01-08T08:35:42.565Z,48.54
2023-01-08T08:36:43.469Z,50.45
2023-01-08T08:37:42.560Z,55.53
2023-01-08T08:38:42.498Z,49.53
2023-01-08T08:39:42.479Z,53.54
2023-01-08T08:40:42.479Z,52.84
2023-01-08T08:41:42.472Z,54.06
2023-01-08T08:42:42.465Z,55.36
2023-01-08T08:43:42.800Z,56.50
2023-01-08T08:44:43.062Z,52.29
2023-01-08T08:45:43.479Z,54.79
2023-01-08T08:46:42.508Z,53.51
2023-01-08T08:47:42.437Z,52.60
2023-01-08T08:48:42.482Z,51.85
2023-01-08T08:49:42.422Z,53.76
2023-01-08T08:50:42.389Z,53.60
2023-01-08T08:51:42.349Z,50.03
2023-01-08T08:52:42.353Z,47.61
2023-01-08T08:53:42.340Z,51.52
2023-01-08T08:54:42.342Z,50.13
2023-01-08T08:55:42.320Z,48.50
2023-01-08T08:56:42.304Z,53.17
2023-01-08T08:57:42.279Z,51.52
2023-01-08T08:58:42.313Z,50.67
2023-01-08T08:59:42.270Z,53.46
2023-01-08T09:00:42.310Z,47.76
2023-01-08T09:01:42.366Z,52.18
2023-01-08T09:02:42.532Z,49.20
2023-01-08T09:03:42.233Z,52.49
2023-01-08T09:04:42.234Z,49.85
2023-01-08T09:05:42.225Z,47.42
2023-01-08T09:06:42.205Z,54.36
2023-01-08T09:07:42.217Z,45.92
2023-01-08T09:08:42.170Z,50.07
2023-01-08T09:09:42.163Z,48.73
2023-01-08T09:10:42.184Z,45.52
2023-01-08T09:11:42.122Z,48.61
2023-01-08T09:12:42.128Z,49.13
2023-01-08T09:13:42.105Z,49.33
2023-01-08T09:14:42.130Z,53.76
2023-01-08T09:15:42.074Z,48.13
2023-01-08T09:16:42.076Z,49.28
2023-01-08T09:17:42.052Z,44.92
2023-01-08T09:18:42.067Z,49.20
2023-01-08T09:19:42.073Z,43.46
2023-01-08T09:20:42.124Z,48.97
2023-01-08T09:21:42.040Z,44.71
2023-01-08T09:22:42.034Z,44.56
2023-01-08T09:23:42.020Z,52.71
2023-01-08T09:24:42.008Z,46.71
2023-01-08T09:25:41.980Z,53.00
2023-01-08T09:26:41.978Z,51.75
2023-01-08T09:27:41.972Z,47.75
2023-01-08T09:28:41.948Z,48.17
2023-01-08T09:29:41.952Z,49.35
2023-01-08T09:30:41.978Z,49.95
2023-01-08T09:31:42.048Z,49.10
2023-01-08T09:32:41.923Z,46.44
2023-01-08T09:33:41.908Z,46.28
2023-01-08T09:34:41.905Z,47.03
2023-01-08T09:35:41.922Z,49.69
2023-01-08T09:36:41.950Z,53.02
2023-01-08T09:37:41.864Z,49.69
2023-01-08T09:38:41.885Z,48.36
2023-01-08T09:39:42.545Z,48.71
2023-01-08T09:40:42.863Z,45.81
2023-01-08T09:41:41.832Z,47.57
2023-01-08T09:42:41.834Z,47.84
2023-01-08T09:43:41.812Z,49.40
2023-01-08T09:44:41.815Z,50.90
2023-01-08T09:45:41.850Z,53.40
2023-01-08T09:46:41.846Z,53.98
2023-01-08T09:47:41.735Z,55.20
2023-01-08T09:48:41.787Z,54.95
2023-01-08T09:49:41.763Z,52.45
2023-01-08T09:50:41.790Z,51.39
2023-01-08T09:51:41.757Z,51.36
2023-01-08T09:52:43.731Z,50.90
2023-01-08T09:53:42.733Z,50.33
2023-01-08T09:54:41.715Z,48.12
2023-01-08T09:55:41.672Z,46.48
2023-01-08T09:56:41.711Z,49.37
2023-01-08T09:57:41.657Z,47.82
2023-01-08T09:58:41.648Z,48.03
2023-01-08T09:59:41.633Z,50.23
2023-01-08T10:00:57.124Z,51.28
2023-01-08T10:01:42.703Z,45.04
2023-01-08T10:02:41.688Z,45.92
2023-01-08T10:03:41.656Z,51.61
2023-01-08T10:04:41.631Z,46.40
2023-01-08T10:05:41.594Z,48.78
2023-01-08T10:06:41.583Z,51.07
2023-01-08T10:07:41.545Z,45.29
2023-01-08T10:08:41.641Z,44.01
2023-01-08T10:09:41.558Z,43.29
2023-01-08T10:10:41.560Z,48.97
2023-01-08T10:11:41.568Z,48.72
2023-01-08T10:12:41.530Z,45.18
2023-01-08T10:13:41.507Z,47.38
2023-01-08T10:14:41.506Z,51.52
2023-01-08T10:15:41.480Z,47.99
2023-01-08T10:16:41.489Z,49.30
2023-01-08T10:17:41.465Z,53.16
2023-01-08T10:18:41.447Z,49.44
2023-01-08T10:19:41.448Z,48.49
2023-01-08T10:20:41.423Z,50.18
2023-01-08T10:21:41.443Z,51.91
2023-01-08T10:22:41.387Z,51.14
2023-01-08T10:23:41.413Z,51.95
2023-01-08T10:24:41.461Z,52.70
2023-01-08T10:25:41.402Z,53.44
2023-01-08T10:26:41.398Z,50.17
2023-01-08T10:27:41.352Z,49.03
2023-01-08T10:28:41.345Z,49.45
2023-01-08T10:29:41.341Z,51.72
2023-01-08T10:30:41.319Z,48.33
2023-01-08T10:31:41.353Z,52.27
2023-01-08T10:32:41.302Z,48.68
2023-01-08T10:33:41.304Z,51.31
2023-01-08T10:34:41.316Z,49.75
2023-01-08T10:35:41.269Z,49.43
2023-01-08T10:36:41.264Z,48.52
2023-01-08T10:37:41.258Z,51.53
2023-01-08T10:38:41.267Z,51.14
2023-01-08T10:39:41.230Z,51.28
2023-01-08T10:40:41.238Z,51.00
2023-01-08T10:41:41.213Z,49.92
2023-01-08T10:42:41.203Z,48.00
2023-01-08T10:43:41.161Z,48.20
2023-01-08T10:44:41.175Z,48.48
2023-01-08T10:45:41.205Z,52.90
2023-01-08T10:46:41.164Z,45.79
2023-01-08T10:47:41.130Z,51.24
2023-01-08T10:48:41.116Z,45.94
2023-01-08T10:49:41.144Z,49.89
2023-01-08T10:50:41.104Z,49.59
2023-01-08T10:51:41.124Z,50.70
2023-01-08T10:52:41.081Z,50.75
2023-01-08T10:53:41.090Z,46.93
2023-01-08T10:54:41.047Z,47.91
2023-01-08T10:55:41.088Z,49.80
2023-01-08T10:56:41.066Z,48.68
2023-01-08T10:57:41.042Z,49.85
2023-01-08T10:58:42.065Z,47.29
2023-01-08T10:59:41.023Z,45.83
2023-01-08T11:00:41.034Z,52.19
2023-01-08T11:01:41.073Z,46.97
2023-01-08T11:02:40.994Z,51.20
2023-01-08T11:03:41.015Z,53.61
2023-01-08T11:04:40.974Z,52.38
2023-01-08T11:05:40.943Z,50.65
2023-01-08T11:06:40.924Z,49.88
2023-01-08T11:07:40.923Z,47.16
2023-01-08T11:08:40.940Z,46.18
2023-01-08T11:09:40.890Z,45.61
2023-01-08T11:10:40.914Z,46.57
2023-01-08T11:11:40.913Z,53.64
2023-01-08T11:12:40.955Z,47.36
2023-01-08T11:13:40.862Z,50.50
2023-01-08T11:14:40.899Z,44.76
2023-01-08T11:15:40.838Z,50.60
2023-01-08T11:16:40.916Z,50.48
2023-01-08T11:17:40.847Z,48.37
2023-01-08T11:18:40.826Z,51.06
2023-01-08T11:19:40.821Z,48.70
2023-01-08T11:20:40.815Z,45.47
2023-01-08T11:21:40.797Z,49.77
2023-01-08T11:22:40.812Z,46.01
2023-01-08T11:23:40.784Z,51.11
2023-01-08T11:24:40.773Z,46.48
2023-01-08T11:25:40.774Z,48.90
2023-01-08T11:26:40.743Z,46.07
2023-01-08T11:27:40.724Z,53.05
2023-01-08T11:28:40.744Z,53.19
2023-01-08T11:29:40.734Z,54.06
2023-01-08T11:30:40.702Z,51.13
2023-01-08T11:31:40.732Z,49.28
2023-01-08T11:32:40.702Z,44.99
2023-01-08T11:33:40.673Z,50.00
2023-01-08T11:34:40.649Z,50.61
2023-01-08T11:35:40.643Z,50.52
2023-01-08T11:36:40.633Z,48.45
2023-01-08T11:37:40.644Z,48.55
2023-01-08T11:38:40.631Z,51.79
2023-01-08T11:39:40.611Z,48.65
2023-01-08T11:40:40.611Z,47.95
2023-01-08T11:41:40.571Z,48.23
2023-01-08T11:42:40.611Z,50.10
2023-01-08T11:43:40.566Z,44.77
2023-01-08T11:44:40.757Z,50.09
2023-01-08T11:45:40.623Z,49.39
2023-01-08T11:46:40.554Z,48.18
2023-01-08T11:47:40.547Z,50.98
2023-01-08T11:48:40.542Z,47.28
2023-01-08T11:49:40.506Z,46.13
2023-01-08T11:50:40.535Z,45.75
2023-01-08T11:51:40.509Z,48.76
2023-01-08T11:52:40.486Z,46.82
2023-01-08T11:53:40.496Z,46.03
2023-01-08T11:54:40.438Z,50.28
2023-01-08T11:55:40.416Z,49.08
2023-01-08T11:56:40.420Z,47.18
2023-01-08T11:57:40.405Z,48.91
2023-01-08T11:58:40.388Z,47.14
2023-01-08T11:59:40.368Z,52.59
2023-01-08T12:00:40.374Z,51.67
2023-01-08T12:01:47.916Z,53.48
2023-01-08T12:02:41.369Z,45.85
2023-01-08T12:03:40.400Z,48.48
2023-01-08T12:04:40.378Z,45.97
2023-01-08T12:05:40.336Z,51.24
2023-01-08T12:06:40.405Z,53.05
2023-01-08T12:07:41.337Z,52.68
2023-01-08T12:08:40.311Z,51.10
2023-01-08T12:09:40.272Z,47.13
2023-01-08T12:10:40.267Z,46.81
2023-01-08T12:11:40.269Z,47.88
2023-01-08T12:12:40.253Z,49.85
2023-01-08T12:13:40.224Z,46.46
2023-01-08T12:14:40.232Z,46.21
2023-01-08T12:15:40.224Z,46.10
2023-01-08T12:16:40.319Z,49.81
2023-01-08T12:17:40.216Z,48.48
2023-01-08T12:18:40.193Z,45.48
2023-01-08T12:19:40.181Z,47.92
2023-01-08T12:20:40.162Z,46.64
2023-01-08T12:21:40.161Z,51.65
2023-01-08T12:22:40.160Z,50.24
2023-01-08T12:23:40.144Z,51.58
2023-01-08T12:24:40.132Z,53.55
2023-01-08T12:25:40.128Z,57.33
2023-01-08T12:26:40.139Z,53.39
2023-01-08T12:27:56.267Z,53.02
2023-01-08T12:28:42.149Z,53.17
2023-01-08T12:29:40.098Z,46.44
2023-01-08T12:30:40.085Z,45.58
2023-01-08T12:31:41.321Z,50.91
2023-01-08T12:32:40.132Z,46.63
2023-01-08T12:33:40.115Z,52.28
2023-01-08T12:34:40.123Z,46.66
2023-01-08T12:35:40.052Z,50.13
2023-01-08T12:36:40.074Z,49.68
2023-01-08T12:37:40.040Z,47.54
2023-01-08T12:38:40.040Z,48.20
2023-01-08T12:39:40.041Z,48.45
2023-01-08T12:40:40.034Z,50.45
2023-01-08T12:41:40.012Z,55.70
2023-01-08T12:42:39.990Z,53.25
2023-01-08T12:43:40.978Z,52.72
2023-01-08T12:44:39.968Z,50.50
2023-01-08T12:45:40.038Z,52.70
2023-01-08T12:46:39.991Z,51.30
2023-01-08T12:47:39.965Z,50.00
2023-01-08T12:48:39.932Z,43.82
2023-01-08T12:49:39.910Z,44.97
2023-01-08T12:50:39.973Z,48.54
2023-01-08T12:51:39.980Z,50.78
2023-01-08T12:52:39.970Z,48.83